sensor_id;sensor_type;location;lat;lon;timestamp;pressure;altitude;pressure_sealevel;temperature;humidity
17060;BME280;8646;49.716;9.266;2023-03-11T00:03:04;99085.22;;;3.72;78.17
17060;BME280;8646;49.716;9.266;2023-03-11T00:06:08;99100.97;;;3.81;78.05
17060;BME280;8646;49.716;9.266;2023-03-11T00:09:11;99124.84;;;3.87;78.63
17060;BME280;8646;49.716;9.266;2023-03-11T00:12:14;99128.75;;;3.77;79.18
17060;BME280;8646;49.716;9.266;2023-03-11T00:15:18;99142.72;;;3.85;78.65
17060;BME280;8646;49.716;9.266;2023-03-11T00:18:23;99144.97;;;3.72;78.71
17060;BME280;8646;49.716;9.266;2023-03-11T00:21:27;99146.81;;;3.70;78.43
17060;BME280;8646;49.716;9.266;2023-03-11T00:24:30;99144.78;;;3.77;78.04
17060;BME280;8646;49.716;9.266;2023-03-11T00:27:33;99164.16;;;3.85;77.61
17060;BME280;8646;49.716;9.266;2023-03-11T00:30:38;99162.25;;;3.89;77.38
17060;BME280;8646;49.716;9.266;2023-03-11T00:33:43;99151.28;;;3.96;76.72
17060;BME280;8646;49.716;9.266;2023-03-11T00:36:46;99162.88;;;3.97;76.49
17060;BME280;8646;49.716;9.266;2023-03-11T00:39:48;99155.75;;;3.96;76.46
17060;BME280;8646;49.716;9.266;2023-03-11T00:42:51;99165.81;;;3.89;75.95
17060;BME280;8646;49.716;9.266;2023-03-11T00:45:54;99164.41;;;3.77;76.15
17060;BME280;8646;49.716;9.266;2023-03-11T00:48:58;99180.56;;;3.74;75.95
17060;BME280;8646;49.716;9.266;2023-03-11T00:52:01;99177.13;;;3.71;75.81
17060;BME280;8646;49.716;9.266;2023-03-11T00:55:04;99186.28;;;3.64;75.88
17060;BME280;8646;49.716;9.266;2023-03-11T00:58:08;99177.22;;;3.68;75.15
17060;BME280;8646;49.716;9.266;2023-03-11T01:01:18;99174.69;;;3.63;74.65
17060;BME280;8646;49.716;9.266;2023-03-11T01:04:22;99162.19;;;3.64;73.78
17060;BME280;8646;49.716;9.266;2023-03-11T01:07:25;99159.69;;;3.58;73.65
17060;BME280;8646;49.716;9.266;2023-03-11T01:10:29;99159.69;;;3.58;73.22
17060;BME280;8646;49.716;9.266;2023-03-11T01:13:32;99166.63;;;3.65;72.34
17060;BME280;8646;49.716;9.266;2023-03-11T01:16:35;99178.09;;;3.68;71.42
17060;BME280;8646;49.716;9.266;2023-03-11T01:19:39;99175.44;;;3.67;71.21
17060;BME280;8646;49.716;9.266;2023-03-11T01:22:42;99157.09;;;3.56;70.15
17060;BME280;8646;49.716;9.266;2023-03-11T01:25:45;99170.09;;;3.67;69.28
17060;BME280;8646;49.716;9.266;2023-03-11T01:28:48;99188.94;;;3.64;68.75
17060;BME280;8646;49.716;9.266;2023-03-11T01:31:50;99186.44;;;3.58;68.12
17060;BME280;8646;49.716;9.266;2023-03-11T01:34:54;99177.63;;;3.56;67.99
17060;BME280;8646;49.716;9.266;2023-03-11T01:37:57;99175.66;;;3.61;67.23
17060;BME280;8646;49.716;9.266;2023-03-11T01:41:01;99180.94;;;3.64;66.31
17060;BME280;8646;49.716;9.266;2023-03-11T01:44:04;99175.03;;;3.53;66.83
17060;BME280;8646;49.716;9.266;2023-03-11T01:47:31;99164.25;;;3.56;66.29
17060;BME280;8646;49.716;9.266;2023-03-11T01:50:40;99170.41;;;3.58;66.43
17060;BME280;8646;49.716;9.266;2023-03-11T01:53:44;99160.88;;;3.49;66.19
17060;BME280;8646;49.716;9.266;2023-03-11T01:56:48;99169.72;;;3.51;66.10
17060;BME280;8646;49.716;9.266;2023-03-11T01:59:55;99185.78;;;3.51;65.81
17060;BME280;8646;49.716;9.266;2023-03-11T02:03:01;99200.06;;;3.50;65.37
17060;BME280;8646;49.716;9.266;2023-03-11T02:06:11;99191.00;;;3.56;64.20
17060;BME280;8646;49.716;9.266;2023-03-11T02:09:15;99203.28;;;3.61;64.01
17060;BME280;8646;49.716;9.266;2023-03-11T02:12:19;99215.19;;;3.79;62.44
17060;BME280;8646;49.716;9.266;2023-03-11T02:15:23;99214.16;;;3.83;62.38
17060;BME280;8646;49.716;9.266;2023-03-11T02:18:26;99236.06;;;3.68;63.69
17060;BME280;8646;49.716;9.266;2023-03-11T02:21:32;99234.53;;;3.61;64.24
17060;BME280;8646;49.716;9.266;2023-03-11T02:24:39;99233.97;;;3.77;63.21
17060;BME280;8646;49.716;9.266;2023-03-11T02:27:48;99220.88;;;3.68;64.20
17060;BME280;8646;49.716;9.266;2023-03-11T02:30:54;99231.81;;;3.62;64.82
17060;BME280;8646;49.716;9.266;2023-03-11T02:33:58;99228.66;;;3.76;64.41
17060;BME280;8646;49.716;9.266;2023-03-11T02:37:04;99232.47;;;3.69;64.81
17060;BME280;8646;49.716;9.266;2023-03-11T02:40:30;99228.97;;;3.67;63.78
17060;BME280;8646;49.716;9.266;2023-03-11T02:43:39;99236.34;;;3.87;63.75
17060;BME280;8646;49.716;9.266;2023-03-11T02:46:44;99212.81;;;3.70;64.35
17060;BME280;8646;49.716;9.266;2023-03-11T02:49:47;99236.66;;;3.77;64.69
17060;BME280;8646;49.716;9.266;2023-03-11T02:52:50;99228.63;;;3.77;65.14
17060;BME280;8646;49.716;9.266;2023-03-11T02:55:53;99238.25;;;3.83;65.34
17060;BME280;8646;49.716;9.266;2023-03-11T02:58:57;99237.22;;;3.87;65.19
17060;BME280;8646;49.716;9.266;2023-03-11T03:02:01;99221.22;;;3.86;65.36
17060;BME280;8646;49.716;9.266;2023-03-11T03:05:05;99238.28;;;3.81;65.81
17060;BME280;8646;49.716;9.266;2023-03-11T03:08:07;99233.38;;;3.96;64.52
17060;BME280;8646;49.716;9.266;2023-03-11T03:11:10;99246.28;;;3.83;65.13
17060;BME280;8646;49.716;9.266;2023-03-11T03:14:14;99252.38;;;3.88;65.26
17060;BME280;8646;49.716;9.266;2023-03-11T03:17:17;99253.78;;;3.72;66.06
17060;BME280;8646;49.716;9.266;2023-03-11T03:20:20;99262.50;;;3.78;65.70
17060;BME280;8646;49.716;9.266;2023-03-11T03:23:23;99267.94;;;3.75;66.01
17060;BME280;8646;49.716;9.266;2023-03-11T03:26:26;99275.19;;;3.72;66.31
17060;BME280;8646;49.716;9.266;2023-03-11T03:29:31;99284.03;;;3.74;66.17
17060;BME280;8646;49.716;9.266;2023-03-11T03:32:34;99279.84;;;3.65;66.74
17060;BME280;8646;49.716;9.266;2023-03-11T03:35:39;99297.47;;;3.72;66.53
17060;BME280;8646;49.716;9.266;2023-03-11T03:38:42;99296.69;;;3.69;66.63
17060;BME280;8646;49.716;9.266;2023-03-11T03:41:45;99305.75;;;3.65;66.47
17060;BME280;8646;49.716;9.266;2023-03-11T03:44:49;99295.97;;;3.64;66.67
17060;BME280;8646;49.716;9.266;2023-03-11T03:47:52;99305.88;;;3.60;67.08
17060;BME280;8646;49.716;9.266;2023-03-11T03:50:55;99303.16;;;3.62;67.20
17060;BME280;8646;49.716;9.266;2023-03-11T03:53:57;99304.16;;;3.58;67.69
17060;BME280;8646;49.716;9.266;2023-03-11T03:57:01;99314.78;;;3.61;67.70
17060;BME280;8646;49.716;9.266;2023-03-11T04:00:06;99323.53;;;3.66;67.99
17060;BME280;8646;49.716;9.266;2023-03-11T04:03:10;99312.81;;;3.66;67.67
17060;BME280;8646;49.716;9.266;2023-03-11T04:06:15;99307.31;;;3.72;67.31
17060;BME280;8646;49.716;9.266;2023-03-11T04:09:19;99308.25;;;3.69;67.44
17060;BME280;8646;49.716;9.266;2023-03-11T04:12:21;99309.22;;;3.67;67.55
17060;BME280;8646;49.716;9.266;2023-03-11T04:15:26;99312.75;;;3.69;67.62
17060;BME280;8646;49.716;9.266;2023-03-11T04:18:28;99330.63;;;3.67;67.99
17060;BME280;8646;49.716;9.266;2023-03-11T04:21:32;99315.69;;;3.60;67.72
17060;BME280;8646;49.716;9.266;2023-03-11T04:24:35;99329.19;;;3.84;66.11
17060;BME280;8646;49.716;9.266;2023-03-11T04:27:38;99337.47;;;3.77;66.23
17060;BME280;8646;49.716;9.266;2023-03-11T04:30:44;99341.25;;;3.70;66.83
17060;BME280;8646;49.716;9.266;2023-03-11T04:33:47;99328.00;;;3.65;67.29
17060;BME280;8646;49.716;9.266;2023-03-11T04:36:50;99327.91;;;3.68;67.21
17060;BME280;8646;49.716;9.266;2023-03-11T04:39:54;99331.50;;;3.67;67.40
17060;BME280;8646;49.716;9.266;2023-03-11T04:42:56;99331.56;;;3.66;67.67
17060;BME280;8646;49.716;9.266;2023-03-11T04:46:00;99343.22;;;3.65;67.76
17060;BME280;8646;49.716;9.266;2023-03-11T04:49:03;99352.91;;;3.67;67.66
17060;BME280;8646;49.716;9.266;2023-03-11T04:52:06;99346.53;;;3.73;67.37
17060;BME280;8646;49.716;9.266;2023-03-11T04:55:09;99345.56;;;3.74;66.86
17060;BME280;8646;49.716;9.266;2023-03-11T04:58:14;99348.25;;;3.74;67.11
17060;BME280;8646;49.716;9.266;2023-03-11T05:01:18;99364.47;;;3.69;67.37
17060;BME280;8646;49.716;9.266;2023-03-11T05:04:21;99363.25;;;3.79;66.62
17060;BME280;8646;49.716;9.266;2023-03-11T05:07:23;99371.53;;;3.72;67.11
17060;BME280;8646;49.716;9.266;2023-03-11T05:10:26;99367.81;;;3.76;67.09
17060;BME280;8646;49.716;9.266;2023-03-11T05:13:32;99383.88;;;3.76;67.07
17060;BME280;8646;49.716;9.266;2023-03-11T05:16:36;99375.88;;;3.74;67.21
17060;BME280;8646;49.716;9.266;2023-03-11T05:19:39;99384.84;;;3.73;67.67
17060;BME280;8646;49.716;9.266;2023-03-11T05:22:41;99377.66;;;3.75;67.54
17060;BME280;8646;49.716;9.266;2023-03-11T05:25:44;99380.28;;;3.77;67.50
17060;BME280;8646;49.716;9.266;2023-03-11T05:28:47;99382.81;;;3.81;67.12
17060;BME280;8646;49.716;9.266;2023-03-11T05:31:51;99391.94;;;3.74;67.50
17060;BME280;8646;49.716;9.266;2023-03-11T05:34:54;99394.38;;;3.82;67.44
17060;BME280;8646;49.716;9.266;2023-03-11T05:37:57;99399.69;;;3.83;67.32
17060;BME280;8646;49.716;9.266;2023-03-11T05:41:01;99405.31;;;3.74;67.50
17060;BME280;8646;49.716;9.266;2023-03-11T05:44:05;99400.78;;;3.78;67.51
17060;BME280;8646;49.716;9.266;2023-03-11T05:47:09;99407.22;;;3.71;67.94
17060;BME280;8646;49.716;9.266;2023-03-11T05:50:12;99405.41;;;3.73;68.02
17060;BME280;8646;49.716;9.266;2023-03-11T05:53:14;99415.94;;;3.77;67.87
17060;BME280;8646;49.716;9.266;2023-03-11T05:56:19;99409.75;;;3.75;67.94
17060;BME280;8646;49.716;9.266;2023-03-11T05:59:22;99410.75;;;3.73;67.95
17060;BME280;8646;49.716;9.266;2023-03-11T06:02:26;99417.00;;;3.72;67.82
17060;BME280;8646;49.716;9.266;2023-03-11T06:05:28;99419.84;;;3.66;68.28
17060;BME280;8646;49.716;9.266;2023-03-11T06:08:31;99417.38;;;3.58;68.37
17060;BME280;8646;49.716;9.266;2023-03-11T06:11:35;99417.94;;;3.71;68.45
17060;BME280;8646;49.716;9.266;2023-03-11T06:14:38;99417.81;;;3.74;68.36
17060;BME280;8646;49.716;9.266;2023-03-11T06:17:42;99414.22;;;3.75;68.15
17060;BME280;8646;49.716;9.266;2023-03-11T06:20:45;99422.94;;;3.81;68.05
17060;BME280;8646;49.716;9.266;2023-03-11T06:23:48;99424.84;;;3.78;68.02
17060;BME280;8646;49.716;9.266;2023-03-11T06:26:51;99429.09;;;3.85;68.07
17060;BME280;8646;49.716;9.266;2023-03-11T06:29:54;99434.38;;;3.88;68.17
17060;BME280;8646;49.716;9.266;2023-03-11T06:32:58;99439.66;;;3.90;67.75
17060;BME280;8646;49.716;9.266;2023-03-11T06:36:02;99447.50;;;3.97;67.86
17060;BME280;8646;49.716;9.266;2023-03-11T06:39:05;99453.00;;;3.91;68.14
17060;BME280;8646;49.716;9.266;2023-03-11T06:42:08;99445.84;;;3.92;68.12
17060;BME280;8646;49.716;9.266;2023-03-11T06:45:13;99457.31;;;3.97;68.13
17060;BME280;8646;49.716;9.266;2023-03-11T06:48:17;99449.94;;;4.05;67.19
17060;BME280;8646;49.716;9.266;2023-03-11T06:51:20;99467.06;;;3.98;67.40
17060;BME280;8646;49.716;9.266;2023-03-11T06:54:23;99472.38;;;3.99;67.63
17060;BME280;8646;49.716;9.266;2023-03-11T06:57:26;99478.53;;;4.03;67.72
17060;BME280;8646;49.716;9.266;2023-03-11T07:00:29;99473.47;;;3.94;67.79
17060;BME280;8646;49.716;9.266;2023-03-11T07:03:34;99492.78;;;4.05;67.57
17060;BME280;8646;49.716;9.266;2023-03-11T07:06:36;99486.28;;;4.13;67.79
17060;BME280;8646;49.716;9.266;2023-03-11T07:09:39;99502.22;;;4.16;67.82
17060;BME280;8646;49.716;9.266;2023-03-11T07:12:42;99503.75;;;4.25;67.96
17060;BME280;8646;49.716;9.266;2023-03-11T07:15:44;99515.00;;;4.38;66.84
17060;BME280;8646;49.716;9.266;2023-03-11T07:18:49;99514.16;;;4.36;66.81
17060;BME280;8646;49.716;9.266;2023-03-11T07:21:52;99515.72;;;4.43;66.67
17060;BME280;8646;49.716;9.266;2023-03-11T07:24:55;99519.50;;;4.64;65.74
17060;BME280;8646;49.716;9.266;2023-03-11T07:27:58;99508.31;;;4.79;65.71
17060;BME280;8646;49.716;9.266;2023-03-11T07:31:06;99520.06;;;5.03;65.82
17060;BME280;8646;49.716;9.266;2023-03-11T07:34:11;99511.72;;;5.36;65.11
17060;BME280;8646;49.716;9.266;2023-03-11T07:37:14;99520.09;;;5.54;64.01
17060;BME280;8646;49.716;9.266;2023-03-11T07:40:17;99531.47;;;5.60;62.65
17060;BME280;8646;49.716;9.266;2023-03-11T07:43:20;99521.50;;;5.39;61.79
17060;BME280;8646;49.716;9.266;2023-03-11T07:46:24;99537.25;;;5.23;62.32
17060;BME280;8646;49.716;9.266;2023-03-11T07:49:29;99535.47;;;5.22;60.80
17060;BME280;8646;49.716;9.266;2023-03-11T07:52:32;99543.66;;;4.91;62.89
17060;BME280;8646;49.716;9.266;2023-03-11T07:55:34;99538.34;;;4.90;61.75
17060;BME280;8646;49.716;9.266;2023-03-11T07:58:37;99551.34;;;4.74;62.49
17060;BME280;8646;49.716;9.266;2023-03-11T08:01:40;99557.38;;;4.53;63.60
17060;BME280;8646;49.716;9.266;2023-03-11T08:04:49;99576.03;;;4.56;64.11
17060;BME280;8646;49.716;9.266;2023-03-11T08:07:51;99561.19;;;4.46;64.98
17060;BME280;8646;49.716;9.266;2023-03-11T08:10:54;99584.69;;;4.36;66.22
17060;BME280;8646;49.716;9.266;2023-03-11T08:13:57;99586.44;;;4.37;66.33
17060;BME280;8646;49.716;9.266;2023-03-11T08:17:00;99596.09;;;4.43;66.78
17060;BME280;8646;49.716;9.266;2023-03-11T08:20:05;99595.63;;;4.58;66.93
17060;BME280;8646;49.716;9.266;2023-03-11T08:23:09;99593.31;;;4.75;66.41
17060;BME280;8646;49.716;9.266;2023-03-11T08:26:14;99609.47;;;5.02;66.33
17060;BME280;8646;49.716;9.266;2023-03-11T08:29:18;99606.00;;;5.26;66.08
17060;BME280;8646;49.716;9.266;2023-03-11T08:32:20;99610.41;;;5.55;65.74
17060;BME280;8646;49.716;9.266;2023-03-11T08:35:25;99602.63;;;5.73;64.86
17060;BME280;8646;49.716;9.266;2023-03-11T08:38:27;99591.38;;;5.87;63.63
17060;BME280;8646;49.716;9.266;2023-03-11T08:41:30;99597.50;;;5.92;62.73
17060;BME280;8646;49.716;9.266;2023-03-11T08:44:33;99596.75;;;6.13;61.38
17060;BME280;8646;49.716;9.266;2023-03-11T08:47:37;99600.63;;;6.30;60.05
17060;BME280;8646;49.716;9.266;2023-03-11T08:50:42;99586.66;;;6.20;59.90
17060;BME280;8646;49.716;9.266;2023-03-11T08:53:54;99595.78;;;6.16;60.04
17060;BME280;8646;49.716;9.266;2023-03-11T08:56:57;99595.16;;;6.08;58.82
17060;BME280;8646;49.716;9.266;2023-03-11T09:00:05;99615.91;;;5.76;60.70
17060;BME280;8646;49.716;9.266;2023-03-11T09:03:09;99620.94;;;5.61;62.67
17060;BME280;8646;49.716;9.266;2023-03-11T09:06:14;99623.41;;;5.41;64.50
17060;BME280;8646;49.716;9.266;2023-03-11T09:09:17;99646.03;;;5.04;66.30
17060;BME280;8646;49.716;9.266;2023-03-11T09:12:21;99646.09;;;5.03;66.43
17060;BME280;8646;49.716;9.266;2023-03-11T09:15:23;99644.91;;;5.39;64.45
17060;BME280;8646;49.716;9.266;2023-03-11T09:18:27;99641.91;;;5.50;64.52
17060;BME280;8646;49.716;9.266;2023-03-11T09:21:31;99642.44;;;5.86;61.94
17060;BME280;8646;49.716;9.266;2023-03-11T09:24:34;99646.91;;;5.87;62.94
17060;BME280;8646;49.716;9.266;2023-03-11T09:27:37;99645.06;;;6.15;62.75
17060;BME280;8646;49.716;9.266;2023-03-11T09:30:40;99643.00;;;6.46;59.65
17060;BME280;8646;49.716;9.266;2023-03-11T09:33:43;99635.53;;;6.55;58.35
17060;BME280;8646;49.716;9.266;2023-03-11T09:36:48;99642.47;;;6.37;58.58
17060;BME280;8646;49.716;9.266;2023-03-11T09:39:51;99637.94;;;6.14;59.51
17060;BME280;8646;49.716;9.266;2023-03-11T09:43:03;99657.44;;;5.93;60.64
17060;BME280;8646;49.716;9.266;2023-03-11T09:46:23;99659.44;;;5.60;61.91
17060;BME280;8646;49.716;9.266;2023-03-11T09:49:38;99645.56;;;5.47;63.10
17060;BME280;8646;49.716;9.266;2023-03-11T09:52:53;99649.47;;;5.63;62.17
17060;BME280;8646;49.716;9.266;2023-03-11T09:55:59;99641.66;;;5.84;61.96
17060;BME280;8646;49.716;9.266;2023-03-11T09:59:12;99650.25;;;6.20;60.21
17060;BME280;8646;49.716;9.266;2023-03-11T10:02:22;99646.25;;;6.56;58.60
17060;BME280;8646;49.716;9.266;2023-03-11T10:05:28;99635.94;;;6.67;58.33
17060;BME280;8646;49.716;9.266;2023-03-11T10:08:39;99638.47;;;6.95;56.53
17060;BME280;8646;49.716;9.266;2023-03-11T10:11:50;99629.38;;;6.98;58.41
17060;BME280;8646;49.716;9.266;2023-03-11T10:15:11;99613.69;;;6.87;53.83
17060;BME280;8646;49.716;9.266;2023-03-11T10:18:35;99630.84;;;6.36;54.27
17060;BME280;8646;49.716;9.266;2023-03-11T10:21:46;99632.69;;;6.09;56.77
17060;BME280;8646;49.716;9.266;2023-03-11T10:25:08;99640.16;;;6.26;55.73
17060;BME280;8646;49.716;9.266;2023-03-11T10:28:15;99642.88;;;6.25;55.04
17060;BME280;8646;49.716;9.266;2023-03-11T10:31:21;99631.09;;;6.04;56.89
17060;BME280;8646;49.716;9.266;2023-03-11T10:34:29;99634.44;;;6.35;55.59
17060;BME280;8646;49.716;9.266;2023-03-11T10:37:38;99648.16;;;6.53;55.07
17060;BME280;8646;49.716;9.266;2023-03-11T10:40:54;99651.03;;;6.48;55.48
17060;BME280;8646;49.716;9.266;2023-03-11T10:44:01;99653.13;;;6.40;55.62
17060;BME280;8646;49.716;9.266;2023-03-11T10:47:12;99654.59;;;6.24;56.43
17060;BME280;8646;49.716;9.266;2023-03-11T10:50:18;99649.69;;;6.60;55.99
17060;BME280;8646;49.716;9.266;2023-03-11T10:53:21;99638.59;;;6.69;55.38
17060;BME280;8646;49.716;9.266;2023-03-11T10:56:28;99639.41;;;6.94;53.90
17060;BME280;8646;49.716;9.266;2023-03-11T10:59:33;99635.78;;;6.95;54.11
17060;BME280;8646;49.716;9.266;2023-03-11T11:02:38;99638.03;;;7.06;54.67
17060;BME280;8646;49.716;9.266;2023-03-11T11:05:56;99663.13;;;7.30;55.07
17060;BME280;8646;49.716;9.266;2023-03-11T11:09:09;99654.84;;;7.56;54.72
17060;BME280;8646;49.716;9.266;2023-03-11T11:12:16;99643.06;;;7.80;54.30
17060;BME280;8646;49.716;9.266;2023-03-11T11:15:24;99614.81;;;7.90;52.83
17060;BME280;8646;49.716;9.266;2023-03-11T11:18:30;99628.22;;;8.12;52.17
17060;BME280;8646;49.716;9.266;2023-03-11T11:21:36;99640.06;;;8.28;51.38
17060;BME280;8646;49.716;9.266;2023-03-11T11:24:43;99635.34;;;8.35;50.80
17060;BME280;8646;49.716;9.266;2023-03-11T11:27:54;99632.66;;;8.35;49.00
17060;BME280;8646;49.716;9.266;2023-03-11T11:30:59;99631.13;;;8.48;46.40
17060;BME280;8646;49.716;9.266;2023-03-11T11:34:02;99624.59;;;8.54;46.65
17060;BME280;8646;49.716;9.266;2023-03-11T11:37:11;99626.22;;;8.58;47.31
17060;BME280;8646;49.716;9.266;2023-03-11T11:40:24;99630.03;;;8.72;46.65
17060;BME280;8646;49.716;9.266;2023-03-11T11:43:40;99628.41;;;8.68;46.37
17060;BME280;8646;49.716;9.266;2023-03-11T11:46:46;99621.09;;;8.91;45.90
17060;BME280;8646;49.716;9.266;2023-03-11T11:49:55;99617.50;;;9.09;45.09
17060;BME280;8646;49.716;9.266;2023-03-11T11:53:04;99616.78;;;9.24;44.73
17060;BME280;8646;49.716;9.266;2023-03-11T11:56:12;99613.13;;;9.06;43.45
17060;BME280;8646;49.716;9.266;2023-03-11T11:59:18;99620.66;;;9.00;43.44
17060;BME280;8646;49.716;9.266;2023-03-11T12:02:36;99622.75;;;8.93;44.28
17060;BME280;8646;49.716;9.266;2023-03-11T12:05:49;99615.69;;;8.91;44.88
17060;BME280;8646;49.716;9.266;2023-03-11T12:09:02;99608.47;;;8.91;44.04
17060;BME280;8646;49.716;9.266;2023-03-11T12:12:19;99598.09;;;8.82;40.98
17060;BME280;8646;49.716;9.266;2023-03-11T12:15:27;99602.91;;;8.75;39.60
17060;BME280;8646;49.716;9.266;2023-03-11T12:18:34;99620.75;;;8.39;41.44
17060;BME280;8646;49.716;9.266;2023-03-11T12:21:59;99630.72;;;8.17;42.66
17060;BME280;8646;49.716;9.266;2023-03-11T12:25:24;99636.63;;;7.84;43.19
17060;BME280;8646;49.716;9.266;2023-03-11T12:28:37;99643.47;;;7.49;44.17
17060;BME280;8646;49.716;9.266;2023-03-11T12:31:44;99639.84;;;7.50;44.85
17060;BME280;8646;49.716;9.266;2023-03-11T12:34:47;99651.19;;;7.37;45.06
17060;BME280;8646;49.716;9.266;2023-03-11T12:38:02;99638.09;;;7.27;45.40
17060;BME280;8646;49.716;9.266;2023-03-11T12:41:07;99637.19;;;7.49;44.64
17060;BME280;8646;49.716;9.266;2023-03-11T12:44:29;99637.66;;;7.60;45.13
17060;BME280;8646;49.716;9.266;2023-03-11T12:47:33;99638.44;;;7.84;45.31
17060;BME280;8646;49.716;9.266;2023-03-11T12:50:39;99615.06;;;8.04;45.64
17060;BME280;8646;49.716;9.266;2023-03-11T12:53:44;99620.75;;;8.39;45.05
17060;BME280;8646;49.716;9.266;2023-03-11T12:56:53;99611.91;;;8.56;42.47
17060;BME280;8646;49.716;9.266;2023-03-11T13:00:22;99605.34;;;8.61;41.64
17060;BME280;8646;49.716;9.266;2023-03-11T13:03:40;99586.25;;;8.27;41.71
17060;BME280;8646;49.716;9.266;2023-03-11T13:10:45;99617.03;;;8.01;41.57
17060;BME280;8646;49.716;9.266;2023-03-11T13:13:48;99619.63;;;7.82;42.48
17060;BME280;8646;49.716;9.266;2023-03-11T13:16:53;99624.19;;;7.60;43.06
17060;BME280;8646;49.716;9.266;2023-03-11T13:19:57;99598.91;;;7.20;43.44
17060;BME280;8646;49.716;9.266;2023-03-11T13:23:19;99616.78;;;7.65;43.21
17060;BME280;8646;49.716;9.266;2023-03-11T13:26:29;99622.78;;;7.72;42.58
17060;BME280;8646;49.716;9.266;2023-03-11T13:29:46;99629.84;;;7.54;43.59
17060;BME280;8646;49.716;9.266;2023-03-11T13:33:06;99626.19;;;7.33;43.35
17060;BME280;8646;49.716;9.266;2023-03-11T13:36:38;99637.28;;;7.69;43.26
17060;BME280;8646;49.716;9.266;2023-03-11T13:39:59;99644.59;;;7.65;42.95
17060;BME280;8646;49.716;9.266;2023-03-11T13:43:10;99647.13;;;7.90;43.00
17060;BME280;8646;49.716;9.266;2023-03-11T13:46:25;99660.53;;;7.92;43.03
17060;BME280;8646;49.716;9.266;2023-03-11T13:49:37;99653.88;;;8.00;41.75
17060;BME280;8646;49.716;9.266;2023-03-11T13:52:46;99655.25;;;7.69;43.21
17060;BME280;8646;49.716;9.266;2023-03-11T13:55:49;99657.63;;;7.76;42.61
17060;BME280;8646;49.716;9.266;2023-03-11T13:58:52;99663.75;;;7.58;43.04
17060;BME280;8646;49.716;9.266;2023-03-11T14:01:56;99677.84;;;7.43;43.88
17060;BME280;8646;49.716;9.266;2023-03-11T14:05:03;99681.78;;;7.56;44.36
17060;BME280;8646;49.716;9.266;2023-03-11T14:08:18;99681.41;;;7.65;43.31
17060;BME280;8646;49.716;9.266;2023-03-11T14:11:24;99679.34;;;7.50;43.56
17060;BME280;8646;49.716;9.266;2023-03-11T14:14:37;99671.78;;;7.38;44.42
17060;BME280;8646;49.716;9.266;2023-03-11T14:17:41;99676.53;;;7.53;44.33
17060;BME280;8646;49.716;9.266;2023-03-11T14:20:45;99662.72;;;7.39;43.98
17060;BME280;8646;49.716;9.266;2023-03-11T14:23:52;99662.09;;;7.32;44.73
17060;BME280;8646;49.716;9.266;2023-03-11T14:26:57;99682.16;;;7.47;44.83
17060;BME280;8646;49.716;9.266;2023-03-11T14:30:01;99685.19;;;7.61;43.50
17060;BME280;8646;49.716;9.266;2023-03-11T14:33:14;99691.50;;;7.60;44.36
17060;BME280;8646;49.716;9.266;2023-03-11T14:36:20;99696.19;;;7.55;44.01
17060;BME280;8646;49.716;9.266;2023-03-11T14:39:29;99695.38;;;7.53;44.19
17060;BME280;8646;49.716;9.266;2023-03-11T14:42:35;99692.69;;;7.53;44.31
17060;BME280;8646;49.716;9.266;2023-03-11T14:45:40;99685.44;;;7.77;42.48
17060;BME280;8646;49.716;9.266;2023-03-11T14:48:44;99697.06;;;7.77;42.83
17060;BME280;8646;49.716;9.266;2023-03-11T14:51:57;99707.78;;;7.57;43.43
17060;BME280;8646;49.716;9.266;2023-03-11T14:55:05;99714.72;;;7.62;43.86
17060;BME280;8646;49.716;9.266;2023-03-11T14:58:13;99700.97;;;7.70;42.57
17060;BME280;8646;49.716;9.266;2023-03-11T15:01:21;99695.94;;;7.61;42.02
17060;BME280;8646;49.716;9.266;2023-03-11T15:04:30;99697.50;;;7.45;42.17
17060;BME280;8646;49.716;9.266;2023-03-11T15:07:34;99692.22;;;7.42;41.74
17060;BME280;8646;49.716;9.266;2023-03-11T15:10:59;99691.19;;;7.22;42.84
17060;BME280;8646;49.716;9.266;2023-03-11T15:14:16;99687.16;;;7.34;43.16
17060;BME280;8646;49.716;9.266;2023-03-11T15:17:24;99684.72;;;7.50;43.17
17060;BME280;8646;49.716;9.266;2023-03-11T15:20:41;99677.78;;;7.66;42.90
17060;BME280;8646;49.716;9.266;2023-03-11T15:23:45;99678.84;;;7.84;43.08
17060;BME280;8646;49.716;9.266;2023-03-11T15:26:55;99666.31;;;8.03;42.78
17060;BME280;8646;49.716;9.266;2023-03-11T15:29:59;99663.00;;;8.18;42.66
17060;BME280;8646;49.716;9.266;2023-03-11T15:33:19;99667.56;;;8.16;42.00
17060;BME280;8646;49.716;9.266;2023-03-11T15:36:30;99659.22;;;8.02;41.72
17060;BME280;8646;49.716;9.266;2023-03-11T15:39:42;99668.19;;;8.02;41.12
17060;BME280;8646;49.716;9.266;2023-03-11T15:42:47;99683.63;;;7.97;41.54
17060;BME280;8646;49.716;9.266;2023-03-11T15:45:51;99692.28;;;8.05;41.28
17060;BME280;8646;49.716;9.266;2023-03-11T15:48:55;99694.00;;;7.86;42.09
17060;BME280;8646;49.716;9.266;2023-03-11T15:51:58;99700.81;;;7.95;39.80
17060;BME280;8646;49.716;9.266;2023-03-11T15:55:01;99699.53;;;7.61;39.68
17060;BME280;8646;49.716;9.266;2023-03-11T15:58:06;99700.31;;;7.42;40.50
17060;BME280;8646;49.716;9.266;2023-03-11T16:01:10;99701.94;;;7.22;41.29
17060;BME280;8646;49.716;9.266;2023-03-11T16:04:14;99695.25;;;7.11;41.90
17060;BME280;8646;49.716;9.266;2023-03-11T16:07:18;99719.28;;;7.15;42.22
17060;BME280;8646;49.716;9.266;2023-03-11T16:10:39;99713.59;;;7.23;42.61
17060;BME280;8646;49.716;9.266;2023-03-11T16:13:44;99712.19;;;7.36;42.43
17060;BME280;8646;49.716;9.266;2023-03-11T16:16:47;99709.41;;;7.61;39.91
17060;BME280;8646;49.716;9.266;2023-03-11T16:19:50;99719.16;;;7.18;40.39
17060;BME280;8646;49.716;9.266;2023-03-11T16:22:54;99714.09;;;7.11;40.97
17060;BME280;8646;49.716;9.266;2023-03-11T16:26:00;99674.81;;;6.82;41.52
17060;BME280;8646;49.716;9.266;2023-03-11T16:29:04;99739.53;;;7.02;41.39
17060;BME280;8646;49.716;9.266;2023-03-11T16:32:19;99743.44;;;6.94;41.33
17060;BME280;8646;49.716;9.266;2023-03-11T16:35:23;99737.38;;;6.64;41.65
17060;BME280;8646;49.716;9.266;2023-03-11T16:38:26;99754.41;;;6.38;42.43
17060;BME280;8646;49.716;9.266;2023-03-11T16:41:39;99755.19;;;6.15;43.20
17060;BME280;8646;49.716;9.266;2023-03-11T16:44:43;99759.19;;;6.02;44.07
17060;BME280;8646;49.716;9.266;2023-03-11T16:47:45;99764.88;;;5.93;44.79
17060;BME280;8646;49.716;9.266;2023-03-11T16:50:48;99760.00;;;5.76;45.47
17060;BME280;8646;49.716;9.266;2023-03-11T16:53:51;99770.13;;;5.68;45.50
17060;BME280;8646;49.716;9.266;2023-03-11T16:56:54;99778.66;;;5.53;46.53
17060;BME280;8646;49.716;9.266;2023-03-11T16:59:58;99786.00;;;5.46;47.17